Terminal Aerodrome Forecast
Issued by NWS Missoula, MT

Home | Current Version | Previous Version | Text Only | Print | Product List | Glossary On
Versions: 1 2 3 4 5 6 7 8 9 10 11 12 13 14 15
000
FTUS45 KMSO 281735
TAFBTM
TAF
KBTM 281735Z 2818/2918 15003KT 3SM FU BKN120
     FM282100 22012G20KT 3SM FU BKN120
     FM290200 19006KT 3SM FU BKN100=

USA.gov is the U.S. government's official web portal to all federal, state and local government web resources and services.